sensor_id;sensor_type;location;lat;lon;timestamp;temperature;humidity
7598;DHT22;3840;59.32098800;18.06423600;2023-11-21T00:00:21;1.00;99.90
7598;DHT22;3840;59.32098800;18.06423600;2023-11-21T00:02:47;0.90;99.90
7598;DHT22;3840;59.32098800;18.06423600;2023-11-21T00:05:14;1.20;99.90
7598;DHT22;3840;59.32098800;18.06423600;2023-11-21T00:07:40;1.00;99.90
7598;DHT22;3840;59.32098800;18.06423600;2023-11-21T00:10:07;0.90;99.90
7598;DHT22;3840;59.32098800;18.06423600;2023-11-21T00:12:36;0.90;99.90
7598;DHT22;3840;59.32098800;18.06423600;2023-11-21T00:15:03;0.90;99.90
7598;DHT22;3840;59.32098800;18.06423600;2023-11-21T00:17:30;1.00;99.90
7598;DHT22;3840;59.32098800;18.06423600;2023-11-21T00:19:56;1.00;99.90
7598;DHT22;3840;59.32098800;18.06423600;2023-11-21T00:22:22;1.00;99.90
7598;DHT22;3840;59.32098800;18.06423600;2023-11-21T00:24:48;1.00;99.90
7598;DHT22;3840;59.32098800;18.06423600;2023-11-21T00:27:14;1.00;99.90
7598;DHT22;3840;59.32098800;18.06423600;2023-11-21T00:29:40;1.00;99.90
7598;DHT22;3840;59.32098800;18.06423600;2023-11-21T00:32:06;1.20;99.90
7598;DHT22;3840;59.32098800;18.06423600;2023-11-21T00:34:32;1.10;99.90
7598;DHT22;3840;59.32098800;18.06423600;2023-11-21T00:36:58;1.00;99.90
7598;DHT22;3840;59.32098800;18.06423600;2023-11-21T00:39:23;1.10;99.90
7598;DHT22;3840;59.32098800;18.06423600;2023-11-21T00:41:50;1.00;99.90
7598;DHT22;3840;59.32098800;18.06423600;2023-11-21T00:44:16;1.00;99.90
7598;DHT22;3840;59.32098800;18.06423600;2023-11-21T00:46:42;1.10;99.90
7598;DHT22;3840;59.32098800;18.06423600;2023-11-21T00:49:07;1.00;99.90
7598;DHT22;3840;59.32098800;18.06423600;2023-11-21T00:51:33;1.00;99.90
7598;DHT22;3840;59.32098800;18.06423600;2023-11-21T00:53:59;0.90;99.90
7598;DHT22;3840;59.32098800;18.06423600;2023-11-21T00:56:25;1.00;99.90
7598;DHT22;3840;59.32098800;18.06423600;2023-11-21T00:58:51;1.00;99.90
7598;DHT22;3840;59.32098800;18.06423600;2023-11-21T01:01:18;1.00;99.90
7598;DHT22;3840;59.32098800;18.06423600;2023-11-21T01:03:46;1.00;99.90
7598;DHT22;3840;59.32098800;18.06423600;2023-11-21T01:06:12;1.00;99.90
7598;DHT22;3840;59.32098800;18.06423600;2023-11-21T01:08:37;1.00;99.90
7598;DHT22;3840;59.32098800;18.06423600;2023-11-21T01:11:04;1.00;99.90
7598;DHT22;3840;59.32098800;18.06423600;2023-11-21T01:13:30;1.00;99.90
7598;DHT22;3840;59.32098800;18.06423600;2023-11-21T01:15:57;1.00;99.90
7598;DHT22;3840;59.32098800;18.06423600;2023-11-21T01:18:22;1.00;99.90
7598;DHT22;3840;59.32098800;18.06423600;2023-11-21T01:20:51;1.00;99.90
7598;DHT22;3840;59.32098800;18.06423600;2023-11-21T01:23:18;1.00;99.90
7598;DHT22;3840;59.32098800;18.06423600;2023-11-21T01:25:44;1.00;99.90
7598;DHT22;3840;59.32098800;18.06423600;2023-11-21T01:28:10;1.00;99.90
7598;DHT22;3840;59.32098800;18.06423600;2023-11-21T01:30:36;1.00;99.90
7598;DHT22;3840;59.32098800;18.06423600;2023-11-21T01:33:02;0.90;99.90
7598;DHT22;3840;59.32098800;18.06423600;2023-11-21T01:35:29;1.10;99.90
7598;DHT22;3840;59.32098800;18.06423600;2023-11-21T01:37:54;1.10;99.90
7598;DHT22;3840;59.32098800;18.06423600;2023-11-21T01:40:20;1.10;99.90
7598;DHT22;3840;59.32098800;18.06423600;2023-11-21T01:42:46;1.10;99.90
7598;DHT22;3840;59.32098800;18.06423600;2023-11-21T01:45:13;1.20;99.90
7598;DHT22;3840;59.32098800;18.06423600;2023-11-21T01:47:40;1.20;99.90
7598;DHT22;3840;59.32098800;18.06423600;2023-11-21T01:50:08;1.30;99.90
7598;DHT22;3840;59.32098800;18.06423600;2023-11-21T01:52:38;1.10;99.90
7598;DHT22;3840;59.32098800;18.06423600;2023-11-21T01:55:05;1.10;99.90
7598;DHT22;3840;59.32098800;18.06423600;2023-11-21T01:57:32;1.10;99.90
7598;DHT22;3840;59.32098800;18.06423600;2023-11-21T01:59:58;1.00;99.90
7598;DHT22;3840;59.32098800;18.06423600;2023-11-21T02:02:49;1.10;99.90
7598;DHT22;3840;59.32098800;18.06423600;2023-11-21T02:05:16;1.10;99.90
7598;DHT22;3840;59.32098800;18.06423600;2023-11-21T02:07:45;1.10;99.90
7598;DHT22;3840;59.32098800;18.06423600;2023-11-21T02:10:14;1.10;99.90
7598;DHT22;3840;59.32098800;18.06423600;2023-11-21T02:12:41;1.00;99.90
7598;DHT22;3840;59.32098800;18.06423600;2023-11-21T02:15:09;1.10;99.90
7598;DHT22;3840;59.32098800;18.06423600;2023-11-21T02:17:41;1.20;99.90
7598;DHT22;3840;59.32098800;18.06423600;2023-11-21T02:20:10;1.20;99.90
7598;DHT22;3840;59.32098800;18.06423600;2023-11-21T02:22:41;1.20;99.90
7598;DHT22;3840;59.32098800;18.06423600;2023-11-21T02:25:08;1.20;99.90
7598;DHT22;3840;59.32098800;18.06423600;2023-11-21T02:27:33;1.10;99.90
7598;DHT22;3840;59.32098800;18.06423600;2023-11-21T02:29:59;1.00;99.90
7598;DHT22;3840;59.32098800;18.06423600;2023-11-21T02:32:26;1.10;99.90
7598;DHT22;3840;59.32098800;18.06423600;2023-11-21T02:34:52;1.10;99.90
7598;DHT22;3840;59.32098800;18.06423600;2023-11-21T02:37:19;1.10;99.90
7598;DHT22;3840;59.32098800;18.06423600;2023-11-21T02:39:45;1.10;99.90
7598;DHT22;3840;59.32098800;18.06423600;2023-11-21T02:42:11;1.20;99.90
7598;DHT22;3840;59.32098800;18.06423600;2023-11-21T02:44:36;1.10;99.90
7598;DHT22;3840;59.32098800;18.06423600;2023-11-21T02:47:02;1.10;99.90
7598;DHT22;3840;59.32098800;18.06423600;2023-11-21T02:49:28;1.00;99.90
7598;DHT22;3840;59.32098800;18.06423600;2023-11-21T02:51:54;1.00;99.90
7598;DHT22;3840;59.32098800;18.06423600;2023-11-21T02:54:23;1.00;99.90
7598;DHT22;3840;59.32098800;18.06423600;2023-11-21T02:56:48;1.00;99.90
7598;DHT22;3840;59.32098800;18.06423600;2023-11-21T02:59:15;1.00;99.90
7598;DHT22;3840;59.32098800;18.06423600;2023-11-21T03:01:41;1.10;99.90
7598;DHT22;3840;59.32098800;18.06423600;2023-11-21T03:04:07;1.10;99.90
7598;DHT22;3840;59.32098800;18.06423600;2023-11-21T03:06:33;1.10;99.90
7598;DHT22;3840;59.32098800;18.06423600;2023-11-21T03:08:59;1.10;99.90
7598;DHT22;3840;59.32098800;18.06423600;2023-11-21T03:11:25;1.10;99.90
7598;DHT22;3840;59.32098800;18.06423600;2023-11-21T03:13:51;1.20;99.90
7598;DHT22;3840;59.32098800;18.06423600;2023-11-21T03:16:16;1.20;99.90
7598;DHT22;3840;59.32098800;18.06423600;2023-11-21T03:18:42;1.20;99.90
7598;DHT22;3840;59.32098800;18.06423600;2023-11-21T03:21:08;1.20;99.90
7598;DHT22;3840;59.32098800;18.06423600;2023-11-21T03:23:37;1.20;99.90
7598;DHT22;3840;59.32098800;18.06423600;2023-11-21T03:26:03;1.20;99.90
7598;DHT22;3840;59.32098800;18.06423600;2023-11-21T03:28:29;1.20;99.90
7598;DHT22;3840;59.32098800;18.06423600;2023-11-21T03:30:58;1.20;99.90
7598;DHT22;3840;59.32098800;18.06423600;2023-11-21T03:33:23;1.20;99.90
7598;DHT22;3840;59.32098800;18.06423600;2023-11-21T03:35:49;1.10;99.90
7598;DHT22;3840;59.32098800;18.06423600;2023-11-21T03:38:15;1.20;99.90
7598;DHT22;3840;59.32098800;18.06423600;2023-11-21T03:40:41;1.20;99.90
7598;DHT22;3840;59.32098800;18.06423600;2023-11-21T03:43:07;1.20;99.90
7598;DHT22;3840;59.32098800;18.06423600;2023-11-21T03:45:33;1.20;99.90
7598;DHT22;3840;59.32098800;18.06423600;2023-11-21T03:47:59;1.20;99.90
7598;DHT22;3840;59.32098800;18.06423600;2023-11-21T03:50:29;1.30;99.90
7598;DHT22;3840;59.32098800;18.06423600;2023-11-21T03:52:55;1.30;99.90
7598;DHT22;3840;59.32098800;18.06423600;2023-11-21T03:55:21;1.30;99.90
7598;DHT22;3840;59.32098800;18.06423600;2023-11-21T03:57:46;1.40;99.90
7598;DHT22;3840;59.32098800;18.06423600;2023-11-21T04:00:12;1.40;99.90
7598;DHT22;3840;59.32098800;18.06423600;2023-11-21T04:02:38;1.40;99.90
7598;DHT22;3840;59.32098800;18.06423600;2023-11-21T04:05:05;1.30;99.90
7598;DHT22;3840;59.32098800;18.06423600;2023-11-21T04:07:32;1.40;99.90
7598;DHT22;3840;59.32098800;18.06423600;2023-11-21T04:09:58;1.40;99.90
7598;DHT22;3840;59.32098800;18.06423600;2023-11-21T04:12:24;1.50;99.90
7598;DHT22;3840;59.32098800;18.06423600;2023-11-21T04:14:50;1.50;99.90
7598;DHT22;3840;59.32098800;18.06423600;2023-11-21T04:17:18;1.50;99.90
7598;DHT22;3840;59.32098800;18.06423600;2023-11-21T04:19:44;1.60;99.90
7598;DHT22;3840;59.32098800;18.06423600;2023-11-21T04:22:10;1.60;99.90
7598;DHT22;3840;59.32098800;18.06423600;2023-11-21T04:24:35;1.60;99.90
7598;DHT22;3840;59.32098800;18.06423600;2023-11-21T04:27:01;1.50;99.90
7598;DHT22;3840;59.32098800;18.06423600;2023-11-21T04:29:28;1.50;99.90
7598;DHT22;3840;59.32098800;18.06423600;2023-11-21T04:31:54;1.60;99.90
7598;DHT22;3840;59.32098800;18.06423600;2023-11-21T04:34:19;1.60;99.90
7598;DHT22;3840;59.32098800;18.06423600;2023-11-21T04:36:45;1.60;99.90
7598;DHT22;3840;59.32098800;18.06423600;2023-11-21T04:39:11;1.50;99.90
7598;DHT22;3840;59.32098800;18.06423600;2023-11-21T04:41:37;1.50;99.90
7598;DHT22;3840;59.32098800;18.06423600;2023-11-21T04:44:05;1.60;99.90
7598;DHT22;3840;59.32098800;18.06423600;2023-11-21T04:46:31;1.60;99.90
7598;DHT22;3840;59.32098800;18.06423600;2023-11-21T04:48:58;1.60;99.90
7598;DHT22;3840;59.32098800;18.06423600;2023-11-21T04:51:24;1.60;99.90
7598;DHT22;3840;59.32098800;18.06423600;2023-11-21T04:53:49;1.60;99.90
7598;DHT22;3840;59.32098800;18.06423600;2023-11-21T04:56:15;1.60;99.90
7598;DHT22;3840;59.32098800;18.06423600;2023-11-21T04:58:41;1.50;99.90
7598;DHT22;3840;59.32098800;18.06423600;2023-11-21T05:01:08;1.50;99.90
7598;DHT22;3840;59.32098800;18.06423600;2023-11-21T05:03:34;1.50;99.90
7598;DHT22;3840;59.32098800;18.06423600;2023-11-21T05:06:00;1.50;99.90
7598;DHT22;3840;59.32098800;18.06423600;2023-11-21T05:08:25;1.60;99.90
7598;DHT22;3840;59.32098800;18.06423600;2023-11-21T05:10:52;1.60;99.90
7598;DHT22;3840;59.32098800;18.06423600;2023-11-21T05:13:19;1.60;99.90
7598;DHT22;3840;59.32098800;18.06423600;2023-11-21T05:15:45;1.50;99.90
7598;DHT22;3840;59.32098800;18.06423600;2023-11-21T05:18:11;1.70;99.90
7598;DHT22;3840;59.32098800;18.06423600;2023-11-21T05:20:39;1.60;99.90
7598;DHT22;3840;59.32098800;18.06423600;2023-11-21T05:23:06;1.60;99.90
7598;DHT22;3840;59.32098800;18.06423600;2023-11-21T05:25:33;1.50;99.90
7598;DHT22;3840;59.32098800;18.06423600;2023-11-21T05:27:58;1.50;99.90
7598;DHT22;3840;59.32098800;18.06423600;2023-11-21T05:30:27;1.40;99.90
7598;DHT22;3840;59.32098800;18.06423600;2023-11-21T05:32:52;1.40;99.90
7598;DHT22;3840;59.32098800;18.06423600;2023-11-21T05:35:18;1.50;99.90
7598;DHT22;3840;59.32098800;18.06423600;2023-11-21T05:37:45;1.50;99.90
7598;DHT22;3840;59.32098800;18.06423600;2023-11-21T05:40:11;1.50;99.90
7598;DHT22;3840;59.32098800;18.06423600;2023-11-21T05:42:39;1.50;99.90
7598;DHT22;3840;59.32098800;18.06423600;2023-11-21T05:45:06;1.50;99.90
7598;DHT22;3840;59.32098800;18.06423600;2023-11-21T05:47:41;1.50;99.90
7598;DHT22;3840;59.32098800;18.06423600;2023-11-21T05:50:08;1.50;99.90
7598;DHT22;3840;59.32098800;18.06423600;2023-11-21T05:52:41;1.50;99.90
7598;DHT22;3840;59.32098800;18.06423600;2023-11-21T05:55:07;1.50;99.90
7598;DHT22;3840;59.32098800;18.06423600;2023-11-21T05:57:37;1.60;99.90
7598;DHT22;3840;59.32098800;18.06423600;2023-11-21T06:00:08;1.60;99.90
7598;DHT22;3840;59.32098800;18.06423600;2023-11-21T06:02:38;1.60;99.90
7598;DHT22;3840;59.32098800;18.06423600;2023-11-21T06:05:05;1.60;99.90
7598;DHT22;3840;59.32098800;18.06423600;2023-11-21T06:07:31;1.50;99.90
7598;DHT22;3840;59.32098800;18.06423600;2023-11-21T06:09:57;1.60;99.90
7598;DHT22;3840;59.32098800;18.06423600;2023-11-21T06:12:23;1.60;99.90
7598;DHT22;3840;59.32098800;18.06423600;2023-11-21T06:14:48;1.60;99.90
7598;DHT22;3840;59.32098800;18.06423600;2023-11-21T06:17:14;1.60;99.90
7598;DHT22;3840;59.32098800;18.06423600;2023-11-21T06:19:40;1.70;99.90
7598;DHT22;3840;59.32098800;18.06423600;2023-11-21T06:22:05;1.70;99.90
7598;DHT22;3840;59.32098800;18.06423600;2023-11-21T06:24:31;1.70;99.90
7598;DHT22;3840;59.32098800;18.06423600;2023-11-21T06:26:57;1.70;99.90
7598;DHT22;3840;59.32098800;18.06423600;2023-11-21T06:29:23;1.70;99.90
7598;DHT22;3840;59.32098800;18.06423600;2023-11-21T06:31:49;1.70;99.90
7598;DHT22;3840;59.32098800;18.06423600;2023-11-21T06:34:15;1.70;99.90
7598;DHT22;3840;59.32098800;18.06423600;2023-11-21T06:36:40;1.70;99.90
7598;DHT22;3840;59.32098800;18.06423600;2023-11-21T06:39:06;1.70;99.90
7598;DHT22;3840;59.32098800;18.06423600;2023-11-21T06:41:34;1.70;99.90
7598;DHT22;3840;59.32098800;18.06423600;2023-11-21T06:44:00;1.70;99.90
7598;DHT22;3840;59.32098800;18.06423600;2023-11-21T06:46:25;1.60;99.90
7598;DHT22;3840;59.32098800;18.06423600;2023-11-21T06:48:51;1.70;99.90
7598;DHT22;3840;59.32098800;18.06423600;2023-11-21T06:51:16;1.60;99.90
7598;DHT22;3840;59.32098800;18.06423600;2023-11-21T06:53:43;1.60;99.90
7598;DHT22;3840;59.32098800;18.06423600;2023-11-21T06:56:18;1.60;99.90
7598;DHT22;3840;59.32098800;18.06423600;2023-11-21T06:58:47;1.60;99.90
7598;DHT22;3840;59.32098800;18.06423600;2023-11-21T07:01:13;1.60;99.90
7598;DHT22;3840;59.32098800;18.06423600;2023-11-21T07:03:39;1.70;99.90
7598;DHT22;3840;59.32098800;18.06423600;2023-11-21T07:06:06;1.60;99.90
7598;DHT22;3840;59.32098800;18.06423600;2023-11-21T07:08:33;1.70;99.90
7598;DHT22;3840;59.32098800;18.06423600;2023-11-21T07:10:58;1.60;99.90
7598;DHT22;3840;59.32098800;18.06423600;2023-11-21T07:13:24;1.60;99.90
7598;DHT22;3840;59.32098800;18.06423600;2023-11-21T07:15:50;1.80;99.90
7598;DHT22;3840;59.32098800;18.06423600;2023-11-21T07:18:15;1.70;99.90
7598;DHT22;3840;59.32098800;18.06423600;2023-11-21T07:20:41;1.70;99.90
7598;DHT22;3840;59.32098800;18.06423600;2023-11-21T07:23:07;1.70;99.90
7598;DHT22;3840;59.32098800;18.06423600;2023-11-21T07:25:32;1.70;99.90
7598;DHT22;3840;59.32098800;18.06423600;2023-11-21T07:28:01;1.70;99.90
7598;DHT22;3840;59.32098800;18.06423600;2023-11-21T07:30:26;1.70;99.90
7598;DHT22;3840;59.32098800;18.06423600;2023-11-21T07:32:53;1.80;99.90
7598;DHT22;3840;59.32098800;18.06423600;2023-11-21T07:35:18;1.80;99.90
7598;DHT22;3840;59.32098800;18.06423600;2023-11-21T07:37:44;1.80;99.90
7598;DHT22;3840;59.32098800;18.06423600;2023-11-21T07:40:10;1.80;99.90
7598;DHT22;3840;59.32098800;18.06423600;2023-11-21T07:42:37;1.80;99.90
7598;DHT22;3840;59.32098800;18.06423600;2023-11-21T07:45:04;1.80;99.90
7598;DHT22;3840;59.32098800;18.06423600;2023-11-21T07:47:30;1.80;99.90
7598;DHT22;3840;59.32098800;18.06423600;2023-11-21T07:50:02;1.80;99.90
7598;DHT22;3840;59.32098800;18.06423600;2023-11-21T07:52:28;1.80;99.90
7598;DHT22;3840;59.32098800;18.06423600;2023-11-21T07:54:54;1.70;99.90
7598;DHT22;3840;59.32098800;18.06423600;2023-11-21T07:57:20;1.70;99.90
7598;DHT22;3840;59.32098800;18.06423600;2023-11-21T07:59:45;1.70;99.90
7598;DHT22;3840;59.32098800;18.06423600;2023-11-21T08:02:11;1.70;99.90
7598;DHT22;3840;59.32098800;18.06423600;2023-11-21T08:04:37;1.70;99.90
7598;DHT22;3840;59.32098800;18.06423600;2023-11-21T08:07:03;1.70;99.90
7598;DHT22;3840;59.32098800;18.06423600;2023-11-21T08:09:29;1.80;99.90
7598;DHT22;3840;59.32098800;18.06423600;2023-11-21T08:11:55;1.90;99.90
7598;DHT22;3840;59.32098800;18.06423600;2023-11-21T08:14:22;1.90;99.90
7598;DHT22;3840;59.32098800;18.06423600;2023-11-21T08:16:53;1.80;99.90
7598;DHT22;3840;59.32098800;18.06423600;2023-11-21T08:19:23;1.80;99.90
7598;DHT22;3840;59.32098800;18.06423600;2023-11-21T08:21:51;1.80;99.90
7598;DHT22;3840;59.32098800;18.06423600;2023-11-21T08:24:20;1.80;99.90
7598;DHT22;3840;59.32098800;18.06423600;2023-11-21T08:26:46;1.70;99.90
7598;DHT22;3840;59.32098800;18.06423600;2023-11-21T08:29:11;1.70;99.90
7598;DHT22;3840;59.32098800;18.06423600;2023-11-21T08:31:37;1.70;99.90
7598;DHT22;3840;59.32098800;18.06423600;2023-11-21T08:34:03;1.70;99.90
7598;DHT22;3840;59.32098800;18.06423600;2023-11-21T08:36:29;1.70;99.90
7598;DHT22;3840;59.32098800;18.06423600;2023-11-21T08:38:57;1.70;99.90
7598;DHT22;3840;59.32098800;18.06423600;2023-11-21T08:41:23;1.60;99.90
7598;DHT22;3840;59.32098800;18.06423600;2023-11-21T08:43:50;1.70;99.90
7598;DHT22;3840;59.32098800;18.06423600;2023-11-21T08:46:16;1.60;99.90
7598;DHT22;3840;59.32098800;18.06423600;2023-11-21T08:48:45;1.60;99.90
7598;DHT22;3840;59.32098800;18.06423600;2023-11-21T08:51:11;2.00;99.90
7598;DHT22;3840;59.32098800;18.06423600;2023-11-21T08:53:37;1.50;99.90
7598;DHT22;3840;59.32098800;18.06423600;2023-11-21T08:56:03;1.50;99.90
7598;DHT22;3840;59.32098800;18.06423600;2023-11-21T08:58:31;1.50;99.90
7598;DHT22;3840;59.32098800;18.06423600;2023-11-21T09:00:57;1.60;99.90
7598;DHT22;3840;59.32098800;18.06423600;2023-11-21T09:03:23;1.60;99.90
7598;DHT22;3840;59.32098800;18.06423600;2023-11-21T09:05:50;1.40;99.90
7598;DHT22;3840;59.32098800;18.06423600;2023-11-21T09:08:15;1.40;99.90
7598;DHT22;3840;59.32098800;18.06423600;2023-11-21T09:10:41;1.40;99.90
7598;DHT22;3840;59.32098800;18.06423600;2023-11-21T09:13:08;1.40;99.90
7598;DHT22;3840;59.32098800;18.06423600;2023-11-21T09:15:34;1.50;99.90
7598;DHT22;3840;59.32098800;18.06423600;2023-11-21T09:18:00;1.50;99.90
7598;DHT22;3840;59.32098800;18.06423600;2023-11-21T09:20:27;1.60;99.90
7598;DHT22;3840;59.32098800;18.06423600;2023-11-21T09:22:53;1.50;99.90
7598;DHT22;3840;59.32098800;18.06423600;2023-11-21T09:25:20;1.60;99.90
7598;DHT22;3840;59.32098800;18.06423600;2023-11-21T09:27:46;1.60;99.90
7598;DHT22;3840;59.32098800;18.06423600;2023-11-21T09:30:12;1.70;99.90
7598;DHT22;3840;59.32098800;18.06423600;2023-11-21T09:32:40;1.70;99.90
7598;DHT22;3840;59.32098800;18.06423600;2023-11-21T09:35:06;1.70;99.90
7598;DHT22;3840;59.32098800;18.06423600;2023-11-21T09:37:34;1.80;99.90
7598;DHT22;3840;59.32098800;18.06423600;2023-11-21T09:40:04;1.80;99.90
7598;DHT22;3840;59.32098800;18.06423600;2023-11-21T09:42:38;1.80;99.90
7598;DHT22;3840;59.32098800;18.06423600;2023-11-21T09:45:21;2.10;99.90
7598;DHT22;3840;59.32098800;18.06423600;2023-11-21T09:47:53;2.10;99.90
7598;DHT22;3840;59.32098800;18.06423600;2023-11-21T09:50:20;1.90;99.90
7598;DHT22;3840;59.32098800;18.06423600;2023-11-21T09:53:11;1.90;99.90
7598;DHT22;3840;59.32098800;18.06423600;2023-11-21T09:55:45;2.00;99.90
7598;DHT22;3840;59.32098800;18.06423600;2023-11-21T09:58:12;2.00;99.90
7598;DHT22;3840;59.32098800;18.06423600;2023-11-21T10:00:46;2.00;99.90
7598;DHT22;3840;59.32098800;18.06423600;2023-11-21T10:03:12;2.10;99.90
7598;DHT22;3840;59.32098800;18.06423600;2023-11-21T10:05:39;2.00;99.90
7598;DHT22;3840;59.32098800;18.06423600;2023-11-21T10:08:10;2.00;99.90
7598;DHT22;3840;59.32098800;18.06423600;2023-11-21T10:10:37;2.00;99.90
7598;DHT22;3840;59.32098800;18.06423600;2023-11-21T10:13:05;2.00;99.90
7598;DHT22;3840;59.32098800;18.06423600;2023-11-21T10:15:34;2.00;99.90
7598;DHT22;3840;59.32098800;18.06423600;2023-11-21T10:18:05;2.10;99.90
7598;DHT22;3840;59.32098800;18.06423600;2023-11-21T10:20:32;2.00;99.90
7598;DHT22;3840;59.32098800;18.06423600;2023-11-21T10:22:59;1.90;99.90
7598;DHT22;3840;59.32098800;18.06423600;2023-11-21T10:25:28;1.90;99.90
7598;DHT22;3840;59.32098800;18.06423600;2023-11-21T10:28:01;1.80;99.90
7598;DHT22;3840;59.32098800;18.06423600;2023-11-21T10:30:34;1.70;99.90
7598;DHT22;3840;59.32098800;18.06423600;2023-11-21T10:33:07;1.80;99.90
7598;DHT22;3840;59.32098800;18.06423600;2023-11-21T10:35:54;1.70;99.90
7598;DHT22;3840;59.32098800;18.06423600;2023-11-21T10:38:21;1.60;99.90
7598;DHT22;3840;59.32098800;18.06423600;2023-11-21T10:40:49;1.60;99.90
7598;DHT22;3840;59.32098800;18.06423600;2023-11-21T10:43:15;1.60;99.90
7598;DHT22;3840;59.32098800;18.06423600;2023-11-21T10:45:41;1.60;99.90
7598;DHT22;3840;59.32098800;18.06423600;2023-11-21T10:48:09;1.60;99.90
7598;DHT22;3840;59.32098800;18.06423600;2023-11-21T10:50:37;1.80;99.90
7598;DHT22;3840;59.32098800;18.06423600;2023-11-21T10:53:03;1.70;99.90
7598;DHT22;3840;59.32098800;18.06423600;2023-11-21T10:55:30;1.70;99.90
7598;DHT22;3840;59.32098800;18.06423600;2023-11-21T10:57:59;1.60;99.90
7598;DHT22;3840;59.32098800;18.06423600;2023-11-21T11:00:28;1.60;99.90
7598;DHT22;3840;59.32098800;18.06423600;2023-11-21T11:02:54;1.80;99.90
7598;DHT22;3840;59.32098800;18.06423600;2023-11-21T11:05:25;1.70;99.90
7598;DHT22;3840;59.32098800;18.06423600;2023-11-21T11:07:56;1.70;99.90
7598;DHT22;3840;59.32098800;18.06423600;2023-11-21T11:10:26;2.40;99.90
7598;DHT22;3840;59.32098800;18.06423600;2023-11-21T11:12:53;1.80;99.90
7598;DHT22;3840;59.32098800;18.06423600;2023-11-21T11:15:21;1.80;99.90
7598;DHT22;3840;59.32098800;18.06423600;2023-11-21T11:17:48;2.50;99.90
7598;DHT22;3840;59.32098800;18.06423600;2023-11-21T11:20:16;1.90;99.90
7598;DHT22;3840;59.32098800;18.06423600;2023-11-21T11:28:11;2.30;99.90
7598;DHT22;3840;59.32098800;18.06423600;2023-11-21T11:39:35;2.00;99.90
7598;DHT22;3840;59.32098800;18.06423600;2023-11-21T11:42:03;2.00;99.90
7598;DHT22;3840;59.32098800;18.06423600;2023-11-21T11:47:29;2.00;99.90
7598;DHT22;3840;59.32098800;18.06423600;2023-11-21T11:50:03;2.00;99.90
7598;DHT22;3840;59.32098800;18.06423600;2023-11-21T11:52:54;2.00;99.90
7598;DHT22;3840;59.32098800;18.06423600;2023-11-21T11:55:24;2.10;99.90
7598;DHT22;3840;59.32098800;18.06423600;2023-11-21T11:57:52;2.10;99.90
7598;DHT22;3840;59.32098800;18.06423600;2023-11-21T12:03:00;2.00;99.90
7598;DHT22;3840;59.32098800;18.06423600;2023-11-21T12:05:29;2.10;99.90
7598;DHT22;3840;59.32098800;18.06423600;2023-11-21T12:08:04;2.10;99.90
7598;DHT22;3840;59.32098800;18.06423600;2023-11-21T12:10:35;2.00;99.90
7598;DHT22;3840;59.32098800;18.06423600;2023-11-21T12:13:09;2.00;99.90
7598;DHT22;3840;59.32098800;18.06423600;2023-11-21T12:15:36;2.00;99.90
7598;DHT22;3840;59.32098800;18.06423600;2023-11-21T12:18:03;2.00;99.90
7598;DHT22;3840;59.32098800;18.06423600;2023-11-21T12:20:32;2.10;99.90
7598;DHT22;3840;59.32098800;18.06423600;2023-11-21T12:22:59;2.10;99.90
7598;DHT22;3840;59.32098800;18.06423600;2023-11-21T12:25:30;2.00;99.90
7598;DHT22;3840;59.32098800;18.06423600;2023-11-21T12:28:00;2.00;99.90
7598;DHT22;3840;59.32098800;18.06423600;2023-11-21T12:30:27;2.10;99.90
7598;DHT22;3840;59.32098800;18.06423600;2023-11-21T12:32:56;2.00;99.90
7598;DHT22;3840;59.32098800;18.06423600;2023-11-21T12:35:25;2.40;99.90
7598;DHT22;3840;59.32098800;18.06423600;2023-11-21T12:37:52;2.00;99.90
7598;DHT22;3840;59.32098800;18.06423600;2023-11-21T12:40:19;2.00;99.90
7598;DHT22;3840;59.32098800;18.06423600;2023-11-21T12:42:46;2.00;99.90
7598;DHT22;3840;59.32098800;18.06423600;2023-11-21T12:47:50;1.90;99.90
7598;DHT22;3840;59.32098800;18.06423600;2023-11-21T12:50:31;1.80;99.90
7598;DHT22;3840;59.32098800;18.06423600;2023-11-21T12:53:11;1.70;99.90
7598;DHT22;3840;59.32098800;18.06423600;2023-11-21T12:55:43;1.60;99.90
7598;DHT22;3840;59.32098800;18.06423600;2023-11-21T12:58:15;1.60;99.90
7598;DHT22;3840;59.32098800;18.06423600;2023-11-21T13:00:48;1.90;99.90
7598;DHT22;3840;59.32098800;18.06423600;2023-11-21T13:03:15;1.40;99.90
7598;DHT22;3840;59.32098800;18.06423600;2023-11-21T13:05:44;1.40;99.90
7598;DHT22;3840;59.32098800;18.06423600;2023-11-21T13:08:11;1.20;99.90
7598;DHT22;3840;59.32098800;18.06423600;2023-11-21T13:10:43;1.90;99.90
7598;DHT22;3840;59.32098800;18.06423600;2023-11-21T13:13:11;1.30;99.90
7598;DHT22;3840;59.32098800;18.06423600;2023-11-21T13:15:48;1.30;99.90
7598;DHT22;3840;59.32098800;18.06423600;2023-11-21T13:18:14;1.30;99.90
7598;DHT22;3840;59.32098800;18.06423600;2023-11-21T13:20:40;1.30;99.90
7598;DHT22;3840;59.32098800;18.06423600;2023-11-21T13:23:10;1.30;99.90
7598;DHT22;3840;59.32098800;18.06423600;2023-11-21T13:25:42;1.30;99.90
7598;DHT22;3840;59.32098800;18.06423600;2023-11-21T13:28:08;2.00;99.90
7598;DHT22;3840;59.32098800;18.06423600;2023-11-21T13:30:38;1.30;99.90
7598;DHT22;3840;59.32098800;18.06423600;2023-11-21T13:33:06;1.30;99.90
7598;DHT22;3840;59.32098800;18.06423600;2023-11-21T13:35:37;1.30;99.90
7598;DHT22;3840;59.32098800;18.06423600;2023-11-21T13:38:10;1.30;99.90
7598;DHT22;3840;59.32098800;18.06423600;2023-11-21T13:40:38;1.20;99.90
7598;DHT22;3840;59.32098800;18.06423600;2023-11-21T13:43:17;1.10;99.90
7598;DHT22;3840;59.32098800;18.06423600;2023-11-21T13:45:45;1.10;99.90
7598;DHT22;3840;59.32098800;18.06423600;2023-11-21T13:48:12;1.10;99.90
7598;DHT22;3840;59.32098800;18.06423600;2023-11-21T13:50:53;1.00;99.90
7598;DHT22;3840;59.32098800;18.06423600;2023-11-21T13:53:34;1.10;99.90
7598;DHT22;3840;59.32098800;18.06423600;2023-11-21T13:56:03;0.90;99.90
7598;DHT22;3840;59.32098800;18.06423600;2023-11-21T13:58:29;0.90;99.90
7598;DHT22;3840;59.32098800;18.06423600;2023-11-21T14:01:12;0.90;99.90
7598;DHT22;3840;59.32098800;18.06423600;2023-11-21T14:04:00;1.30;99.90
7598;DHT22;3840;59.32098800;18.06423600;2023-11-21T14:06:34;0.80;99.90
7598;DHT22;3840;59.32098800;18.06423600;2023-11-21T14:09:07;0.80;99.90
7598;DHT22;3840;59.32098800;18.06423600;2023-11-21T14:11:33;0.90;99.90